sensor_id;sensor_type;location;lat;lon;timestamp;P1;durP1;ratioP1;P2;durP2;ratioP2
53646;SDS011;39550;52.230;5.194;2023-06-22T00:01:02;5.82;;;2.90;;
53646;SDS011;39550;52.230;5.194;2023-06-22T00:03:28;4.68;;;2.72;;
53646;SDS011;39550;52.230;5.194;2023-06-22T00:05:53;4.65;;;3.08;;
53646;SDS011;39550;52.230;5.194;2023-06-22T00:08:19;6.32;;;3.25;;
53646;SDS011;39550;52.230;5.194;2023-06-22T00:10:47;5.13;;;3.15;;
53646;SDS011;39550;52.230;5.194;2023-06-22T00:13:12;5.32;;;2.92;;
53646;SDS011;39550;52.230;5.194;2023-06-22T00:15:39;5.45;;;3.15;;
53646;SDS011;39550;52.230;5.194;2023-06-22T00:18:06;4.75;;;3.20;;
53646;SDS011;39550;52.230;5.194;2023-06-22T00:20:31;5.03;;;3.03;;
53646;SDS011;39550;52.230;5.194;2023-06-22T00:22:57;4.90;;;3.05;;
53646;SDS011;39550;52.230;5.194;2023-06-22T00:25:24;5.32;;;3.22;;
53646;SDS011;39550;52.230;5.194;2023-06-22T00:27:49;4.75;;;2.92;;
53646;SDS011;39550;52.230;5.194;2023-06-22T00:30:15;4.43;;;2.95;;
53646;SDS011;39550;52.230;5.194;2023-06-22T00:32:41;5.10;;;3.10;;
53646;SDS011;39550;52.230;5.194;2023-06-22T00:35:07;4.43;;;2.90;;
53646;SDS011;39550;52.230;5.194;2023-06-22T00:37:34;4.88;;;3.28;;
53646;SDS011;39550;52.230;5.194;2023-06-22T00:40:00;4.57;;;2.92;;
53646;SDS011;39550;52.230;5.194;2023-06-22T00:42:26;4.70;;;2.97;;
53646;SDS011;39550;52.230;5.194;2023-06-22T00:44:51;4.80;;;2.83;;
53646;SDS011;39550;52.230;5.194;2023-06-22T00:47:17;7.30;;;3.35;;
53646;SDS011;39550;52.230;5.194;2023-06-22T00:49:43;5.18;;;3.05;;
53646;SDS011;39550;52.230;5.194;2023-06-22T00:52:09;5.25;;;3.15;;
53646;SDS011;39550;52.230;5.194;2023-06-22T00:54:38;5.32;;;3.28;;
53646;SDS011;39550;52.230;5.194;2023-06-22T00:57:05;4.78;;;3.05;;
53646;SDS011;39550;52.230;5.194;2023-06-22T00:59:35;5.38;;;3.22;;
53646;SDS011;39550;52.230;5.194;2023-06-22T01:02:01;4.88;;;3.30;;
53646;SDS011;39550;52.230;5.194;2023-06-22T01:04:35;4.97;;;3.47;;
53646;SDS011;39550;52.230;5.194;2023-06-22T01:12:34;5.55;;;3.22;;
53646;SDS011;39550;52.230;5.194;2023-06-22T01:15:10;4.93;;;3.13;;
53646;SDS011;39550;52.230;5.194;2023-06-22T01:17:46;4.90;;;3.13;;
53646;SDS011;39550;52.230;5.194;2023-06-22T01:20:14;5.47;;;3.33;;
53646;SDS011;39550;52.230;5.194;2023-06-22T01:25:48;5.22;;;3.58;;
53646;SDS011;39550;52.230;5.194;2023-06-22T01:28:46;5.40;;;3.45;;
53646;SDS011;39550;52.230;5.194;2023-06-22T01:31:16;6.03;;;3.88;;
53646;SDS011;39550;52.230;5.194;2023-06-22T01:33:44;5.63;;;3.55;;
53646;SDS011;39550;52.230;5.194;2023-06-22T01:36:11;5.90;;;3.88;;
53646;SDS011;39550;52.230;5.194;2023-06-22T01:38:38;7.28;;;3.70;;
53646;SDS011;39550;52.230;5.194;2023-06-22T01:41:04;6.78;;;3.70;;
53646;SDS011;39550;52.230;5.194;2023-06-22T01:43:30;6.00;;;4.35;;
53646;SDS011;39550;52.230;5.194;2023-06-22T01:45:57;7.15;;;4.05;;
53646;SDS011;39550;52.230;5.194;2023-06-22T01:48:23;6.13;;;3.90;;
53646;SDS011;39550;52.230;5.194;2023-06-22T01:50:51;5.28;;;3.63;;
53646;SDS011;39550;52.230;5.194;2023-06-22T01:53:17;5.65;;;3.72;;
53646;SDS011;39550;52.230;5.194;2023-06-22T01:55:42;6.10;;;3.83;;
53646;SDS011;39550;52.230;5.194;2023-06-22T01:58:08;6.13;;;3.85;;
53646;SDS011;39550;52.230;5.194;2023-06-22T02:00:38;6.32;;;3.60;;
53646;SDS011;39550;52.230;5.194;2023-06-22T02:03:10;6.53;;;3.90;;
53646;SDS011;39550;52.230;5.194;2023-06-22T02:05:39;5.93;;;3.72;;
53646;SDS011;39550;52.230;5.194;2023-06-22T02:08:16;5.65;;;3.67;;
53646;SDS011;39550;52.230;5.194;2023-06-22T02:10:45;6.15;;;4.38;;
53646;SDS011;39550;52.230;5.194;2023-06-22T02:13:13;4.93;;;3.42;;
53646;SDS011;39550;52.230;5.194;2023-06-22T02:15:39;6.43;;;3.80;;
53646;SDS011;39550;52.230;5.194;2023-06-22T02:18:05;6.40;;;3.83;;
53646;SDS011;39550;52.230;5.194;2023-06-22T02:20:31;5.90;;;3.72;;
53646;SDS011;39550;52.230;5.194;2023-06-22T02:22:56;6.47;;;3.83;;
53646;SDS011;39550;52.230;5.194;2023-06-22T02:25:21;5.75;;;3.70;;
53646;SDS011;39550;52.230;5.194;2023-06-22T02:27:47;5.55;;;3.50;;
53646;SDS011;39550;52.230;5.194;2023-06-22T02:30:12;5.07;;;3.80;;
53646;SDS011;39550;52.230;5.194;2023-06-22T02:32:40;5.72;;;3.63;;
53646;SDS011;39550;52.230;5.194;2023-06-22T02:35:09;5.38;;;3.45;;
53646;SDS011;39550;52.230;5.194;2023-06-22T02:37:35;5.07;;;3.30;;
53646;SDS011;39550;52.230;5.194;2023-06-22T02:40:04;5.68;;;3.63;;
53646;SDS011;39550;52.230;5.194;2023-06-22T02:42:32;5.35;;;3.65;;
53646;SDS011;39550;52.230;5.194;2023-06-22T02:44:57;5.25;;;3.60;;
53646;SDS011;39550;52.230;5.194;2023-06-22T02:47:23;6.75;;;3.70;;
53646;SDS011;39550;52.230;5.194;2023-06-22T02:49:48;5.65;;;4.05;;
53646;SDS011;39550;52.230;5.194;2023-06-22T02:52:14;6.63;;;3.53;;
53646;SDS011;39550;52.230;5.194;2023-06-22T02:54:39;5.97;;;3.80;;
53646;SDS011;39550;52.230;5.194;2023-06-22T02:57:04;5.75;;;3.80;;
53646;SDS011;39550;52.230;5.194;2023-06-22T02:59:30;5.15;;;3.45;;
53646;SDS011;39550;52.230;5.194;2023-06-22T03:01:55;7.47;;;4.28;;
53646;SDS011;39550;52.230;5.194;2023-06-22T03:04:21;5.80;;;3.90;;
53646;SDS011;39550;52.230;5.194;2023-06-22T03:06:46;5.88;;;4.00;;
53646;SDS011;39550;52.230;5.194;2023-06-22T03:09:16;6.25;;;3.67;;
53646;SDS011;39550;52.230;5.194;2023-06-22T03:11:42;4.78;;;3.20;;
53646;SDS011;39550;52.230;5.194;2023-06-22T03:14:07;5.40;;;3.67;;
53646;SDS011;39550;52.230;5.194;2023-06-22T03:16:33;6.35;;;3.78;;
53646;SDS011;39550;52.230;5.194;2023-06-22T03:18:58;5.07;;;3.47;;
53646;SDS011;39550;52.230;5.194;2023-06-22T03:21:27;5.45;;;3.83;;
53646;SDS011;39550;52.230;5.194;2023-06-22T03:23:53;5.25;;;3.45;;
53646;SDS011;39550;52.230;5.194;2023-06-22T03:27:05;5.53;;;3.50;;
53646;SDS011;39550;52.230;5.194;2023-06-22T03:29:31;7.93;;;5.07;;
53646;SDS011;39550;52.230;5.194;2023-06-22T03:31:56;7.78;;;4.80;;
53646;SDS011;39550;52.230;5.194;2023-06-22T03:34:22;6.15;;;4.00;;
53646;SDS011;39550;52.230;5.194;2023-06-22T03:36:47;6.93;;;4.50;;
53646;SDS011;39550;52.230;5.194;2023-06-22T03:39:12;6.22;;;4.57;;
53646;SDS011;39550;52.230;5.194;2023-06-22T03:41:38;4.95;;;3.17;;
53646;SDS011;39550;52.230;5.194;2023-06-22T03:44:04;6.30;;;4.25;;
53646;SDS011;39550;52.230;5.194;2023-06-22T03:46:29;7.78;;;4.20;;
53646;SDS011;39550;52.230;5.194;2023-06-22T03:48:54;6.20;;;4.20;;
53646;SDS011;39550;52.230;5.194;2023-06-22T03:51:20;7.00;;;3.83;;
53646;SDS011;39550;52.230;5.194;2023-06-22T03:53:45;6.53;;;4.28;;
53646;SDS011;39550;52.230;5.194;2023-06-22T03:56:11;6.53;;;4.20;;
53646;SDS011;39550;52.230;5.194;2023-06-22T03:58:36;6.75;;;4.50;;
53646;SDS011;39550;52.230;5.194;2023-06-22T04:01:07;6.35;;;3.97;;
53646;SDS011;39550;52.230;5.194;2023-06-22T04:03:36;8.48;;;4.13;;
53646;SDS011;39550;52.230;5.194;2023-06-22T04:06:02;6.75;;;4.53;;
53646;SDS011;39550;52.230;5.194;2023-06-22T04:08:27;6.95;;;4.38;;
53646;SDS011;39550;52.230;5.194;2023-06-22T04:10:53;5.38;;;4.07;;
53646;SDS011;39550;52.230;5.194;2023-06-22T04:13:18;6.88;;;4.07;;
53646;SDS011;39550;52.230;5.194;2023-06-22T04:15:43;6.82;;;4.32;;
53646;SDS011;39550;52.230;5.194;2023-06-22T04:18:09;7.10;;;4.07;;
53646;SDS011;39550;52.230;5.194;2023-06-22T04:20:34;6.22;;;3.67;;
53646;SDS011;39550;52.230;5.194;2023-06-22T04:23:00;6.03;;;3.92;;
53646;SDS011;39550;52.230;5.194;2023-06-22T04:25:25;7.78;;;4.32;;
53646;SDS011;39550;52.230;5.194;2023-06-22T04:27:51;7.47;;;4.50;;
53646;SDS011;39550;52.230;5.194;2023-06-22T04:30:16;6.35;;;4.07;;
53646;SDS011;39550;52.230;5.194;2023-06-22T04:32:42;6.45;;;4.20;;
53646;SDS011;39550;52.230;5.194;2023-06-22T04:35:08;6.32;;;3.95;;
53646;SDS011;39550;52.230;5.194;2023-06-22T04:37:33;6.93;;;4.10;;
53646;SDS011;39550;52.230;5.194;2023-06-22T04:39:59;7.28;;;4.55;;
53646;SDS011;39550;52.230;5.194;2023-06-22T04:42:26;7.47;;;4.57;;
53646;SDS011;39550;52.230;5.194;2023-06-22T04:44:51;6.32;;;4.10;;
53646;SDS011;39550;52.230;5.194;2023-06-22T04:47:17;6.80;;;4.00;;
53646;SDS011;39550;52.230;5.194;2023-06-22T04:49:42;6.15;;;3.72;;
53646;SDS011;39550;52.230;5.194;2023-06-22T04:52:09;6.93;;;4.03;;
53646;SDS011;39550;52.230;5.194;2023-06-22T04:54:37;6.50;;;4.47;;
53646;SDS011;39550;52.230;5.194;2023-06-22T04:57:04;6.45;;;4.30;;
53646;SDS011;39550;52.230;5.194;2023-06-22T04:59:34;8.45;;;4.68;;
53646;SDS011;39550;52.230;5.194;2023-06-22T05:02:01;6.43;;;4.20;;
53646;SDS011;39550;52.230;5.194;2023-06-22T05:04:28;6.05;;;4.15;;
53646;SDS011;39550;52.230;5.194;2023-06-22T05:06:56;6.22;;;4.10;;
53646;SDS011;39550;52.230;5.194;2023-06-22T05:09:23;6.10;;;4.28;;
53646;SDS011;39550;52.230;5.194;2023-06-22T05:11:54;6.07;;;4.20;;
53646;SDS011;39550;52.230;5.194;2023-06-22T05:14:21;7.45;;;4.75;;
53646;SDS011;39550;52.230;5.194;2023-06-22T05:16:46;11.50;;;4.30;;
53646;SDS011;39550;52.230;5.194;2023-06-22T05:19:13;6.22;;;4.20;;
53646;SDS011;39550;52.230;5.194;2023-06-22T05:21:38;14.50;;;8.35;;
53646;SDS011;39550;52.230;5.194;2023-06-22T05:24:04;14.00;;;10.15;;
53646;SDS011;39550;52.230;5.194;2023-06-22T05:26:30;25.73;;;15.82;;
53646;SDS011;39550;52.230;5.194;2023-06-22T05:28:58;14.40;;;9.57;;
53646;SDS011;39550;52.230;5.194;2023-06-22T05:31:24;18.77;;;13.20;;
53646;SDS011;39550;52.230;5.194;2023-06-22T05:33:50;18.92;;;14.23;;
53646;SDS011;39550;52.230;5.194;2023-06-22T05:36:17;19.63;;;16.00;;
53646;SDS011;39550;52.230;5.194;2023-06-22T05:38:44;21.33;;;16.33;;
53646;SDS011;39550;52.230;5.194;2023-06-22T05:41:10;21.88;;;16.80;;
53646;SDS011;39550;52.230;5.194;2023-06-22T05:43:35;24.40;;;18.88;;
53646;SDS011;39550;52.230;5.194;2023-06-22T05:46:01;25.63;;;18.52;;
53646;SDS011;39550;52.230;5.194;2023-06-22T05:48:27;24.33;;;18.35;;
53646;SDS011;39550;52.230;5.194;2023-06-22T05:50:52;29.00;;;21.73;;
53646;SDS011;39550;52.230;5.194;2023-06-22T05:53:18;26.98;;;21.05;;
53646;SDS011;39550;52.230;5.194;2023-06-22T05:55:43;28.92;;;21.88;;
53646;SDS011;39550;52.230;5.194;2023-06-22T05:58:09;34.45;;;22.35;;
53646;SDS011;39550;52.230;5.194;2023-06-22T06:00:35;33.05;;;24.95;;
53646;SDS011;39550;52.230;5.194;2023-06-22T06:03:00;30.85;;;22.65;;
53646;SDS011;39550;52.230;5.194;2023-06-22T06:05:31;31.02;;;23.90;;
53646;SDS011;39550;52.230;5.194;2023-06-22T06:07:58;32.60;;;23.38;;
53646;SDS011;39550;52.230;5.194;2023-06-22T06:10:24;30.05;;;23.60;;
53646;SDS011;39550;52.230;5.194;2023-06-22T06:12:50;31.35;;;24.45;;
53646;SDS011;39550;52.230;5.194;2023-06-22T06:15:16;33.03;;;24.40;;
53646;SDS011;39550;52.230;5.194;2023-06-22T06:17:45;29.25;;;24.33;;
53646;SDS011;39550;52.230;5.194;2023-06-22T06:20:12;33.63;;;24.88;;
53646;SDS011;39550;52.230;5.194;2023-06-22T06:22:37;28.98;;;22.98;;
53646;SDS011;39550;52.230;5.194;2023-06-22T06:25:03;30.65;;;22.83;;
53646;SDS011;39550;52.230;5.194;2023-06-22T06:27:29;31.10;;;24.27;;
53646;SDS011;39550;52.230;5.194;2023-06-22T06:29:55;31.33;;;23.42;;
53646;SDS011;39550;52.230;5.194;2023-06-22T06:32:20;30.88;;;22.85;;
53646;SDS011;39550;52.230;5.194;2023-06-22T06:34:46;30.30;;;23.40;;
53646;SDS011;39550;52.230;5.194;2023-06-22T06:37:11;29.52;;;22.70;;
53646;SDS011;39550;52.230;5.194;2023-06-22T06:39:36;27.05;;;22.08;;
53646;SDS011;39550;52.230;5.194;2023-06-22T06:42:02;29.15;;;21.40;;
53646;SDS011;39550;52.230;5.194;2023-06-22T06:44:27;25.13;;;20.48;;
53646;SDS011;39550;52.230;5.194;2023-06-22T06:46:53;25.80;;;20.17;;
53646;SDS011;39550;52.230;5.194;2023-06-22T06:49:19;24.70;;;20.52;;
53646;SDS011;39550;52.230;5.194;2023-06-22T06:51:44;25.00;;;20.42;;
53646;SDS011;39550;52.230;5.194;2023-06-22T06:54:10;23.65;;;19.30;;
53646;SDS011;39550;52.230;5.194;2023-06-22T06:56:35;27.17;;;20.67;;
53646;SDS011;39550;52.230;5.194;2023-06-22T06:59:02;24.48;;;19.85;;
53646;SDS011;39550;52.230;5.194;2023-06-22T07:01:27;24.83;;;18.98;;
53646;SDS011;39550;52.230;5.194;2023-06-22T07:03:59;23.88;;;18.75;;
53646;SDS011;39550;52.230;5.194;2023-06-22T07:06:25;23.17;;;18.23;;
53646;SDS011;39550;52.230;5.194;2023-06-22T07:08:54;22.67;;;18.43;;
53646;SDS011;39550;52.230;5.194;2023-06-22T07:13:47;21.98;;;17.27;;
53646;SDS011;39550;52.230;5.194;2023-06-22T07:16:12;23.52;;;17.83;;
53646;SDS011;39550;52.230;5.194;2023-06-22T07:18:39;22.40;;;18.10;;
53646;SDS011;39550;52.230;5.194;2023-06-22T07:21:05;22.67;;;17.05;;
53646;SDS011;39550;52.230;5.194;2023-06-22T07:23:32;22.55;;;17.98;;
53646;SDS011;39550;52.230;5.194;2023-06-22T07:25:57;22.02;;;17.30;;
53646;SDS011;39550;52.230;5.194;2023-06-22T07:28:22;22.77;;;18.45;;
53646;SDS011;39550;52.230;5.194;2023-06-22T07:30:48;23.05;;;18.40;;
53646;SDS011;39550;52.230;5.194;2023-06-22T07:33:13;22.33;;;17.83;;
53646;SDS011;39550;52.230;5.194;2023-06-22T07:35:38;23.83;;;17.55;;
53646;SDS011;39550;52.230;5.194;2023-06-22T07:38:04;22.13;;;16.67;;
53646;SDS011;39550;52.230;5.194;2023-06-22T07:40:30;22.33;;;17.58;;
53646;SDS011;39550;52.230;5.194;2023-06-22T07:42:55;18.95;;;16.02;;
53646;SDS011;39550;52.230;5.194;2023-06-22T07:45:20;21.13;;;17.25;;
53646;SDS011;39550;52.230;5.194;2023-06-22T07:47:46;23.95;;;17.23;;
53646;SDS011;39550;52.230;5.194;2023-06-22T07:50:11;20.35;;;16.35;;
53646;SDS011;39550;52.230;5.194;2023-06-22T07:52:37;21.77;;;17.48;;
53646;SDS011;39550;52.230;5.194;2023-06-22T07:55:02;20.30;;;16.38;;
53646;SDS011;39550;52.230;5.194;2023-06-22T07:57:28;20.38;;;15.98;;
53646;SDS011;39550;52.230;5.194;2023-06-22T08:00:01;20.77;;;16.88;;
53646;SDS011;39550;52.230;5.194;2023-06-22T08:02:40;20.92;;;16.27;;
53646;SDS011;39550;52.230;5.194;2023-06-22T08:05:06;18.13;;;15.52;;
53646;SDS011;39550;52.230;5.194;2023-06-22T08:07:33;20.55;;;16.15;;
53646;SDS011;39550;52.230;5.194;2023-06-22T08:10:01;18.42;;;15.30;;
53646;SDS011;39550;52.230;5.194;2023-06-22T08:12:27;18.85;;;15.07;;
53646;SDS011;39550;52.230;5.194;2023-06-22T08:14:52;18.45;;;14.77;;
53646;SDS011;39550;52.230;5.194;2023-06-22T08:17:18;19.05;;;14.57;;
53646;SDS011;39550;52.230;5.194;2023-06-22T08:19:43;16.33;;;14.00;;
53646;SDS011;39550;52.230;5.194;2023-06-22T08:22:08;17.92;;;14.00;;
53646;SDS011;39550;52.230;5.194;2023-06-22T08:24:34;16.77;;;14.10;;
53646;SDS011;39550;52.230;5.194;2023-06-22T08:26:59;17.73;;;13.57;;
53646;SDS011;39550;52.230;5.194;2023-06-22T08:29:25;16.45;;;13.15;;
53646;SDS011;39550;52.230;5.194;2023-06-22T08:31:50;15.20;;;11.98;;
53646;SDS011;39550;52.230;5.194;2023-06-22T08:34:15;15.27;;;12.02;;
53646;SDS011;39550;52.230;5.194;2023-06-22T08:36:41;16.38;;;12.32;;
53646;SDS011;39550;52.230;5.194;2023-06-22T08:39:09;15.75;;;12.02;;
53646;SDS011;39550;52.230;5.194;2023-06-22T08:41:35;13.23;;;11.43;;
53646;SDS011;39550;52.230;5.194;2023-06-22T08:44:00;13.75;;;11.07;;
53646;SDS011;39550;52.230;5.194;2023-06-22T08:46:25;14.35;;;11.77;;
53646;SDS011;39550;52.230;5.194;2023-06-22T08:48:55;13.60;;;10.95;;
53646;SDS011;39550;52.230;5.194;2023-06-22T08:51:22;14.00;;;11.00;;
53646;SDS011;39550;52.230;5.194;2023-06-22T08:53:48;13.13;;;10.23;;
53646;SDS011;39550;52.230;5.194;2023-06-22T08:56:13;14.60;;;10.90;;
53646;SDS011;39550;52.230;5.194;2023-06-22T08:58:38;11.70;;;9.80;;
53646;SDS011;39550;52.230;5.194;2023-06-22T09:01:04;12.68;;;10.52;;
53646;SDS011;39550;52.230;5.194;2023-06-22T09:03:29;13.63;;;10.02;;
53646;SDS011;39550;52.230;5.194;2023-06-22T09:05:55;12.07;;;10.30;;
53646;SDS011;39550;52.230;5.194;2023-06-22T09:08:20;11.90;;;9.73;;
53646;SDS011;39550;52.230;5.194;2023-06-22T09:10:46;10.88;;;9.20;;
53646;SDS011;39550;52.230;5.194;2023-06-22T09:13:11;11.98;;;9.43;;
53646;SDS011;39550;52.230;5.194;2023-06-22T09:15:36;12.00;;;9.30;;
53646;SDS011;39550;52.230;5.194;2023-06-22T09:18:01;14.38;;;9.20;;
53646;SDS011;39550;52.230;5.194;2023-06-22T09:20:27;10.57;;;8.68;;
53646;SDS011;39550;52.230;5.194;2023-06-22T09:22:52;12.23;;;9.38;;
53646;SDS011;39550;52.230;5.194;2023-06-22T09:25:18;12.70;;;9.55;;
53646;SDS011;39550;52.230;5.194;2023-06-22T09:27:45;10.27;;;8.50;;
53646;SDS011;39550;52.230;5.194;2023-06-22T09:30:11;10.70;;;7.85;;
53646;SDS011;39550;52.230;5.194;2023-06-22T09:32:36;10.90;;;8.23;;
53646;SDS011;39550;52.230;5.194;2023-06-22T09:35:04;9.40;;;8.02;;
53646;SDS011;39550;52.230;5.194;2023-06-22T09:37:33;11.07;;;8.77;;
53646;SDS011;39550;52.230;5.194;2023-06-22T09:39:59;8.95;;;7.22;;
53646;SDS011;39550;52.230;5.194;2023-06-22T09:42:24;10.43;;;7.75;;
53646;SDS011;39550;52.230;5.194;2023-06-22T09:44:50;9.48;;;7.07;;
53646;SDS011;39550;52.230;5.194;2023-06-22T09:47:15;10.77;;;7.05;;
53646;SDS011;39550;52.230;5.194;2023-06-22T09:49:41;9.40;;;7.28;;
53646;SDS011;39550;52.230;5.194;2023-06-22T09:52:06;10.75;;;7.43;;
53646;SDS011;39550;52.230;5.194;2023-06-22T09:54:32;9.07;;;6.90;;
53646;SDS011;39550;52.230;5.194;2023-06-22T09:56:57;10.48;;;7.18;;
53646;SDS011;39550;52.230;5.194;2023-06-22T09:59:22;8.20;;;6.53;;
53646;SDS011;39550;52.230;5.194;2023-06-22T10:01:48;7.65;;;5.90;;
53646;SDS011;39550;52.230;5.194;2023-06-22T10:04:13;8.20;;;6.43;;
53646;SDS011;39550;52.230;5.194;2023-06-22T10:06:38;9.60;;;6.28;;
53646;SDS011;39550;52.230;5.194;2023-06-22T10:09:05;9.52;;;6.70;;
53646;SDS011;39550;52.230;5.194;2023-06-22T10:11:32;9.85;;;6.30;;
53646;SDS011;39550;52.230;5.194;2023-06-22T10:14:00;8.13;;;6.22;;
53646;SDS011;39550;52.230;5.194;2023-06-22T10:16:30;8.98;;;5.97;;
53646;SDS011;39550;52.230;5.194;2023-06-22T10:18:56;7.93;;;5.72;;
53646;SDS011;39550;52.230;5.194;2023-06-22T10:21:21;9.27;;;6.35;;
53646;SDS011;39550;52.230;5.194;2023-06-22T10:23:47;7.97;;;6.20;;
53646;SDS011;39550;52.230;5.194;2023-06-22T10:26:12;8.10;;;6.20;;
53646;SDS011;39550;52.230;5.194;2023-06-22T10:28:37;6.93;;;5.57;;
53646;SDS011;39550;52.230;5.194;2023-06-22T10:31:03;10.07;;;6.13;;
53646;SDS011;39550;52.230;5.194;2023-06-22T10:33:28;8.07;;;5.70;;
53646;SDS011;39550;52.230;5.194;2023-06-22T10:35:53;8.05;;;6.38;;
53646;SDS011;39550;52.230;5.194;2023-06-22T10:38:19;8.70;;;5.95;;
53646;SDS011;39550;52.230;5.194;2023-06-22T10:40:44;7.10;;;5.25;;
53646;SDS011;39550;52.230;5.194;2023-06-22T10:43:10;7.95;;;6.05;;
53646;SDS011;39550;52.230;5.194;2023-06-22T10:45:36;7.20;;;5.88;;
53646;SDS011;39550;52.230;5.194;2023-06-22T10:48:01;7.20;;;5.43;;
53646;SDS011;39550;52.230;5.194;2023-06-22T10:50:26;6.80;;;5.07;;
53646;SDS011;39550;52.230;5.194;2023-06-22T10:52:53;7.20;;;5.28;;
53646;SDS011;39550;52.230;5.194;2023-06-22T10:55:19;7.07;;;5.25;;
53646;SDS011;39550;52.230;5.194;2023-06-22T10:57:44;7.80;;;5.47;;
53646;SDS011;39550;52.230;5.194;2023-06-22T11:00:12;8.75;;;6.15;;
53646;SDS011;39550;52.230;5.194;2023-06-22T11:02:40;7.15;;;5.60;;
53646;SDS011;39550;52.230;5.194;2023-06-22T11:05:05;7.35;;;5.35;;
53646;SDS011;39550;52.230;5.194;2023-06-22T11:07:31;8.20;;;5.20;;
53646;SDS011;39550;52.230;5.194;2023-06-22T11:09:57;8.02;;;5.80;;
53646;SDS011;39550;52.230;5.194;2023-06-22T11:12:23;7.68;;;5.63;;
53646;SDS011;39550;52.230;5.194;2023-06-22T11:14:49;6.90;;;5.10;;
53646;SDS011;39550;52.230;5.194;2023-06-22T11:17:16;7.32;;;5.18;;
53646;SDS011;39550;52.230;5.194;2023-06-22T11:19:44;6.70;;;5.55;;
53646;SDS011;39550;52.230;5.194;2023-06-22T11:22:10;7.43;;;5.43;;
53646;SDS011;39550;52.230;5.194;2023-06-22T11:24:35;6.90;;;5.05;;
53646;SDS011;39550;52.230;5.194;2023-06-22T11:27:01;8.70;;;5.65;;
53646;SDS011;39550;52.230;5.194;2023-06-22T11:29:26;8.40;;;5.38;;
53646;SDS011;39550;52.230;5.194;2023-06-22T11:31:51;7.32;;;4.93;;
53646;SDS011;39550;52.230;5.194;2023-06-22T11:34:17;8.00;;;6.50;;
53646;SDS011;39550;52.230;5.194;2023-06-22T11:36:44;6.68;;;5.20;;
53646;SDS011;39550;52.230;5.194;2023-06-22T11:39:10;6.57;;;5.28;;
53646;SDS011;39550;52.230;5.194;2023-06-22T11:41:35;6.53;;;4.80;;
53646;SDS011;39550;52.230;5.194;2023-06-22T11:44:01;8.13;;;5.10;;
53646;SDS011;39550;52.230;5.194;2023-06-22T11:46:26;6.85;;;5.00;;
53646;SDS011;39550;52.230;5.194;2023-06-22T11:48:52;7.28;;;4.80;;
53646;SDS011;39550;52.230;5.194;2023-06-22T11:51:17;6.68;;;4.80;;
53646;SDS011;39550;52.230;5.194;2023-06-22T11:53:42;6.53;;;4.55;;
53646;SDS011;39550;52.230;5.194;2023-06-22T11:56:08;6.32;;;4.55;;
53646;SDS011;39550;52.230;5.194;2023-06-22T11:58:33;6.88;;;4.82;;
53646;SDS011;39550;52.230;5.194;2023-06-22T12:00:58;6.60;;;4.60;;
53646;SDS011;39550;52.230;5.194;2023-06-22T12:03:24;6.70;;;4.72;;
53646;SDS011;39550;52.230;5.194;2023-06-22T12:05:50;6.47;;;4.38;;
53646;SDS011;39550;52.230;5.194;2023-06-22T12:08:17;6.10;;;4.60;;
53646;SDS011;39550;52.230;5.194;2023-06-22T12:10:42;5.90;;;4.30;;
53646;SDS011;39550;52.230;5.194;2023-06-22T12:13:07;5.75;;;4.20;;
53646;SDS011;39550;52.230;5.194;2023-06-22T12:15:33;5.70;;;4.50;;
53646;SDS011;39550;52.230;5.194;2023-06-22T12:17:58;6.95;;;4.78;;
53646;SDS011;39550;52.230;5.194;2023-06-22T12:20:24;6.03;;;4.43;;
53646;SDS011;39550;52.230;5.194;2023-06-22T12:22:49;6.10;;;4.60;;
53646;SDS011;39550;52.230;5.194;2023-06-22T12:25:16;5.88;;;4.10;;
53646;SDS011;39550;52.230;5.194;2023-06-22T12:27:42;6.13;;;4.40;;
53646;SDS011;39550;52.230;5.194;2023-06-22T12:30:08;5.80;;;4.72;;
53646;SDS011;39550;52.230;5.194;2023-06-22T12:32:33;6.15;;;4.60;;
53646;SDS011;39550;52.230;5.194;2023-06-22T12:34:58;7.05;;;5.15;;
53646;SDS011;39550;52.230;5.194;2023-06-22T12:37:24;7.22;;;5.00;;
53646;SDS011;39550;52.230;5.194;2023-06-22T12:39:49;6.35;;;4.55;;
53646;SDS011;39550;52.230;5.194;2023-06-22T12:42:15;7.45;;;5.30;;
53646;SDS011;39550;52.230;5.194;2023-06-22T12:44:41;6.00;;;4.60;;
53646;SDS011;39550;52.230;5.194;2023-06-22T12:47:07;6.05;;;4.70;;
53646;SDS011;39550;52.230;5.194;2023-06-22T12:52:01;6.80;;;5.30;;
53646;SDS011;39550;52.230;5.194;2023-06-22T12:54:27;5.97;;;4.47;;
53646;SDS011;39550;52.230;5.194;2023-06-22T12:56:56;7.10;;;5.37;;
53646;SDS011;39550;52.230;5.194;2023-06-22T12:59:21;8.02;;;5.35;;
53646;SDS011;39550;52.230;5.194;2023-06-22T13:01:47;7.57;;;5.43;;
53646;SDS011;39550;52.230;5.194;2023-06-22T13:04:12;7.45;;;5.10;;
53646;SDS011;39550;52.230;5.194;2023-06-22T13:06:40;6.88;;;5.05;;
53646;SDS011;39550;52.230;5.194;2023-06-22T13:09:06;6.43;;;4.93;;
53646;SDS011;39550;52.230;5.194;2023-06-22T13:11:31;8.40;;;5.40;;
53646;SDS011;39550;52.230;5.194;2023-06-22T13:13:56;6.88;;;4.80;;
53646;SDS011;39550;52.230;5.194;2023-06-22T13:16:22;6.07;;;4.80;;
53646;SDS011;39550;52.230;5.194;2023-06-22T13:18:47;6.97;;;4.68;;
53646;SDS011;39550;52.230;5.194;2023-06-22T13:21:12;7.43;;;5.15;;
53646;SDS011;39550;52.230;5.194;2023-06-22T13:23:39;7.47;;;5.60;;
53646;SDS011;39550;52.230;5.194;2023-06-22T13:26:04;7.03;;;4.82;;
53646;SDS011;39550;52.230;5.194;2023-06-22T13:28:30;7.47;;;5.10;;
53646;SDS011;39550;52.230;5.194;2023-06-22T13:30:55;6.50;;;4.93;;
53646;SDS011;39550;52.230;5.194;2023-06-22T13:33:20;6.63;;;4.80;;
53646;SDS011;39550;52.230;5.194;2023-06-22T13:35:46;8.75;;;5.45;;
53646;SDS011;39550;52.230;5.194;2023-06-22T13:38:11;5.82;;;4.45;;
53646;SDS011;39550;52.230;5.194;2023-06-22T13:40:37;6.30;;;4.75;;
53646;SDS011;39550;52.230;5.194;2023-06-22T13:43:05;6.47;;;5.05;;
53646;SDS011;39550;52.230;5.194;2023-06-22T13:45:31;7.07;;;5.35;;
53646;SDS011;39550;52.230;5.194;2023-06-22T13:47:57;6.65;;;4.78;;
53646;SDS011;39550;52.230;5.194;2023-06-22T13:50:22;6.82;;;5.35;;
53646;SDS011;39550;52.230;5.194;2023-06-22T13:52:47;7.28;;;5.22;;
53646;SDS011;39550;52.230;5.194;2023-06-22T13:55:13;5.80;;;4.60;;
53646;SDS011;39550;52.230;5.194;2023-06-22T13:57:39;8.40;;;5.55;;
53646;SDS011;39550;52.230;5.194;2023-06-22T14:00:06;6.82;;;5.20;;
53646;SDS011;39550;52.230;5.194;2023-06-22T14:02:33;6.90;;;5.00;;
53646;SDS011;39550;52.230;5.194;2023-06-22T14:04:58;7.35;;;5.65;;
53646;SDS011;39550;52.230;5.194;2023-06-22T14:07:24;7.47;;;5.78;;
53646;SDS011;39550;52.230;5.194;2023-06-22T14:09:49;6.80;;;5.32;;
53646;SDS011;39550;52.230;5.194;2023-06-22T14:12:15;7.57;;;5.53;;
53646;SDS011;39550;52.230;5.194;2023-06-22T14:14:42;7.00;;;5.28;;
53646;SDS011;39550;52.230;5.194;2023-06-22T14:17:08;7.43;;;5.90;;
53646;SDS011;39550;52.230;5.194;2023-06-22T14:19:34;7.53;;;5.25;;
53646;SDS011;39550;52.230;5.194;2023-06-22T14:21:59;8.15;;;5.25;;
53646;SDS011;39550;52.230;5.194;2023-06-22T14:24:25;7.95;;;5.13;;
53646;SDS011;39550;52.230;5.194;2023-06-22T14:26:50;6.55;;;5.28;;
53646;SDS011;39550;52.230;5.194;2023-06-22T14:29:15;8.13;;;6.22;;
53646;SDS011;39550;52.230;5.194;2023-06-22T14:31:44;9.88;;;7.68;;
53646;SDS011;39550;52.230;5.194;2023-06-22T14:34:13;8.50;;;6.20;;
53646;SDS011;39550;52.230;5.194;2023-06-22T14:41:53;14.57;;;9.48;;
53646;SDS011;39550;52.230;5.194;2023-06-22T14:44:32;11.70;;;9.75;;
53646;SDS011;39550;52.230;5.194;2023-06-22T14:47:26;12.38;;;8.85;;
53646;SDS011;39550;52.230;5.194;2023-06-22T14:49:55;11.00;;;8.77;;
53646;SDS011;39550;52.230;5.194;2023-06-22T14:52:23;11.20;;;8.60;;
53646;SDS011;39550;52.230;5.194;2023-06-22T14:54:48;11.23;;;7.28;;